Terminal Aerodrome Forecast
Issued by NWS Cleveland, OH

Home | Current Version | Previous Version | Graphics & Text | Print | Product List | Glossary On
Versions: 1 2 3 4 5 6 7 8 9 10 11 12 13 14 15 16 17 18 19 20 21 22 23 24 25 26 27
000
FTUS41 KCLE 171739
TAFERI
TAF
KERI 171739Z 1718/1818 16010G18KT P6SM VCSH OVC017
      TEMPO 1718/1721 -SHRA SCT017 BKN035
     FM172200 23010G18KT P6SM OVC008
     FM180100 24010G18KT 5SM BR VCSH OVC006=

USA.gov is the U.S. government's official web portal to all federal, state and local government web resources and services.